createdAt,value
2018-04-02T00:00:28.359Z,17.40
2018-04-02T00:01:00.078Z,17.40
2018-04-02T00:01:31.812Z,17.40
2018-04-02T00:02:03.545Z,17.30
2018-04-02T00:02:35.272Z,17.30
2018-04-02T00:03:06.992Z,17.40
2018-04-02T00:03:39.495Z,17.40
2018-04-02T00:04:11.240Z,17.40
2018-04-02T00:04:42.963Z,17.40
2018-04-02T00:05:14.703Z,17.40
2018-04-02T00:05:46.480Z,17.40
2018-04-02T00:06:18.184Z,17.40
2018-04-02T00:06:49.916Z,17.40
2018-04-02T00:07:22.409Z,17.40
2018-04-02T00:07:54.127Z,17.40
2018-04-02T00:08:26.608Z,17.30
2018-04-02T00:08:58.369Z,17.30
2018-04-02T00:09:30.115Z,17.40
2018-04-02T00:10:01.885Z,17.40
2018-04-02T00:10:33.603Z,17.40
2018-04-02T00:11:05.348Z,17.40
2018-04-02T00:11:37.083Z,17.40
2018-04-02T00:12:08.835Z,17.40
2018-04-02T00:12:41.322Z,17.40
2018-04-02T00:13:13.097Z,17.40
2018-04-02T00:13:44.796Z,17.30
2018-04-02T00:14:16.538Z,17.40
2018-04-02T00:14:48.271Z,17.30
2018-04-02T00:15:19.991Z,17.30
2018-04-02T00:15:51.740Z,17.30
2018-04-02T00:16:23.502Z,17.30
2018-04-02T00:16:55.982Z,17.30
2018-04-02T00:17:27.705Z,17.30
2018-04-02T00:17:59.432Z,17.30
2018-04-02T00:18:31.153Z,17.30
2018-04-02T00:19:03.641Z,17.40
2018-04-02T00:19:35.368Z,17.30
2018-04-02T00:20:07.883Z,17.40
2018-04-02T00:20:39.609Z,17.40
2018-04-02T00:21:11.334Z,17.40
2018-04-02T00:21:43.087Z,17.40
2018-04-02T00:22:14.808Z,17.40
2018-04-02T00:22:47.306Z,17.40
2018-04-02T00:23:19.040Z,17.40
2018-04-02T00:23:50.785Z,17.40
2018-04-02T00:24:22.509Z,17.40
2018-04-02T00:24:54.999Z,17.30
2018-04-02T00:25:26.723Z,17.30
2018-04-02T00:25:58.455Z,17.30
2018-04-02T00:26:30.196Z,17.30
2018-04-02T00:27:02.700Z,17.30
2018-04-02T00:27:34.426Z,17.30
2018-04-02T00:28:06.144Z,17.40
2018-04-02T00:28:37.889Z,17.40
2018-04-02T00:29:09.632Z,17.40
2018-04-02T00:29:42.122Z,17.30
2018-04-02T00:30:13.847Z,17.30
2018-04-02T00:30:46.344Z,17.30
2018-04-02T00:31:18.084Z,17.30
2018-04-02T00:31:49.808Z,17.30
2018-04-02T00:32:21.539Z,17.30
2018-04-02T00:32:54.043Z,17.30
2018-04-02T00:33:25.774Z,17.30
2018-04-02T00:33:57.475Z,17.30
2018-04-02T00:34:29.975Z,17.30
2018-04-02T00:35:01.703Z,17.30
2018-04-02T00:35:33.529Z,17.30
2018-04-02T00:36:06.016Z,17.30
2018-04-02T00:36:37.779Z,17.30
2018-04-02T00:37:09.516Z,17.30
2018-04-02T00:37:41.242Z,17.30
2018-04-02T00:38:13.729Z,17.30
2018-04-02T00:38:45.474Z,17.30
2018-04-02T00:39:17.178Z,17.30
2018-04-02T00:39:49.679Z,17.30
2018-04-02T00:40:21.426Z,17.30
2018-04-02T00:40:53.149Z,17.30
2018-04-02T00:41:24.876Z,17.30
2018-04-02T00:41:57.367Z,17.30
2018-04-02T00:42:29.113Z,17.30
2018-04-02T00:43:00.833Z,17.30
2018-04-02T00:43:32.559Z,17.30
2018-04-02T00:44:05.083Z,17.30
2018-04-02T00:44:36.866Z,17.30
2018-04-02T00:45:08.588Z,17.30
2018-04-02T00:45:40.329Z,17.30
2018-04-02T00:46:12.069Z,17.30
2018-04-02T00:46:43.781Z,17.30
2018-04-02T00:47:15.518Z,17.30
2018-04-02T00:47:47.267Z,17.30
2018-04-02T00:48:18.979Z,17.30
2018-04-02T00:48:51.517Z,17.30
2018-04-02T00:49:23.198Z,17.30
2018-04-02T00:49:54.938Z,17.30
2018-04-02T00:50:27.435Z,17.40
2018-04-02T00:50:59.151Z,17.30
2018-04-02T00:51:30.904Z,17.40
2018-04-02T00:52:02.649Z,17.40
2018-04-02T00:52:34.371Z,17.40
2018-04-02T00:53:06.894Z,17.40
2018-04-02T00:53:38.634Z,17.40
2018-04-02T00:54:10.366Z,17.40
2018-04-02T00:54:42.106Z,17.40
2018-04-02T00:55:13.835Z,17.40
2018-04-02T00:55:45.556Z,17.40
2018-04-02T00:56:18.055Z,17.40
2018-04-02T00:56:49.787Z,17.40
2018-04-02T00:57:21.493Z,17.40
2018-04-02T00:57:53.207Z,17.70
2018-04-02T00:58:24.996Z,17.40
2018-04-02T00:58:57.479Z,17.30
2018-04-02T00:59:29.314Z,17.30
2018-04-02T01:00:01.052Z,17.30
2018-04-02T01:00:33.541Z,17.30
2018-04-02T01:01:05.297Z,17.40
2018-04-02T01:01:37.013Z,17.30
2018-04-02T01:02:09.516Z,17.30
2018-04-02T01:02:41.224Z,17.30
2018-04-02T01:03:12.951Z,17.30
2018-04-02T01:03:45.451Z,17.30
2018-04-02T01:04:17.178Z,17.30
2018-04-02T01:04:48.899Z,17.30
2018-04-02T01:05:21.403Z,17.30
2018-04-02T01:05:53.125Z,17.30
2018-04-02T01:06:24.858Z,17.30
2018-04-02T01:06:56.580Z,17.30
2018-04-02T01:07:29.074Z,17.30
2018-04-02T01:08:00.804Z,17.30
2018-04-02T01:08:32.546Z,17.30
2018-04-02T01:09:05.032Z,17.30
2018-04-02T01:09:36.756Z,17.30
2018-04-02T01:10:08.483Z,17.30
2018-04-02T01:10:40.980Z,17.30
2018-04-02T01:11:12.697Z,17.30
2018-04-02T01:11:45.194Z,17.30
2018-04-02T01:12:16.948Z,17.30
2018-04-02T01:12:48.671Z,17.30
2018-04-02T01:13:20.396Z,17.30
2018-04-02T01:13:52.956Z,17.30
2018-04-02T01:14:25.454Z,17.30
2018-04-02T01:14:57.201Z,17.30
2018-04-02T01:15:28.922Z,17.30
2018-04-02T01:16:00.634Z,17.30
2018-04-02T01:16:32.352Z,17.30
2018-04-02T01:17:04.089Z,17.30
2018-04-02T01:17:35.829Z,17.30
2018-04-02T01:18:07.527Z,17.30
2018-04-02T01:18:39.268Z,17.30
2018-04-02T01:19:11.792Z,17.30
2018-04-02T01:19:43.616Z,17.30
2018-04-02T01:20:16.110Z,17.30
2018-04-02T01:20:47.840Z,17.30
2018-04-02T01:21:19.556Z,17.30
2018-04-02T01:21:51.292Z,17.30
2018-04-02T01:22:23.076Z,17.30
2018-04-02T01:22:55.519Z,17.40
2018-04-02T01:23:27.243Z,17.40
2018-04-02T01:23:58.972Z,17.40
2018-04-02T01:24:31.447Z,17.40
2018-04-02T01:25:03.160Z,17.40
2018-04-02T01:25:35.660Z,17.40
2018-04-02T01:26:07.400Z,17.40
2018-04-02T01:26:39.141Z,17.30
2018-04-02T01:27:10.928Z,17.30
2018-04-02T01:27:42.646Z,17.30
2018-04-02T01:28:14.382Z,17.30
2018-04-02T01:28:46.116Z,17.30
2018-04-02T01:29:17.838Z,17.30
2018-04-02T01:29:50.337Z,17.20
2018-04-02T01:30:22.069Z,17.30
2018-04-02T01:30:53.799Z,17.30
2018-04-02T01:31:25.555Z,17.30
2018-04-02T01:31:57.244Z,17.30
2018-04-02T01:32:28.968Z,17.30
2018-04-02T01:33:00.679Z,17.30
2018-04-02T01:33:32.423Z,17.30
2018-04-02T01:34:04.158Z,17.30
2018-04-02T01:34:36.624Z,17.30
2018-04-02T01:35:08.347Z,17.30
2018-04-02T01:35:40.067Z,17.30
2018-04-02T01:36:11.790Z,17.30
2018-04-02T01:36:43.525Z,17.30
2018-04-02T01:37:15.244Z,17.30
2018-04-02T01:37:46.992Z,17.30
2018-04-02T01:38:18.728Z,17.30
2018-04-02T01:38:50.452Z,17.30
2018-04-02T01:39:22.185Z,17.30
2018-04-02T01:39:53.920Z,17.30
2018-04-02T01:40:25.652Z,17.30
2018-04-02T01:40:57.375Z,17.30
2018-04-02T01:41:29.108Z,17.30
2018-04-02T01:42:00.845Z,17.30
2018-04-02T01:42:32.561Z,17.30
2018-04-02T01:43:04.284Z,17.30
2018-04-02T01:43:36.007Z,17.30
2018-04-02T01:44:07.732Z,17.30
2018-04-02T01:44:39.460Z,17.30
2018-04-02T01:45:11.199Z,17.30
2018-04-02T01:45:43.691Z,17.30
2018-04-02T01:46:15.418Z,17.30
2018-04-02T01:46:47.173Z,17.30
2018-04-02T01:47:18.892Z,17.30
2018-04-02T01:47:51.395Z,17.30
2018-04-02T01:48:23.127Z,17.30
2018-04-02T01:48:54.848Z,17.20
2018-04-02T01:49:26.569Z,17.20
2018-04-02T01:49:58.300Z,17.20
2018-04-02T01:50:30.015Z,17.20
2018-04-02T01:51:01.763Z,17.20
2018-04-02T01:51:33.504Z,17.20
2018-04-02T01:52:05.207Z,17.30
2018-04-02T01:52:37.733Z,17.30
2018-04-02T01:53:09.474Z,17.30
2018-04-02T01:53:41.203Z,17.30
2018-04-02T01:54:12.928Z,17.30
2018-04-02T01:54:44.704Z,17.30
2018-04-02T01:55:16.403Z,17.20
2018-04-02T01:55:48.131Z,17.30
2018-04-02T01:56:20.623Z,17.30
2018-04-02T01:56:52.357Z,17.20
2018-04-02T01:57:24.080Z,17.30
2018-04-02T01:57:56.583Z,17.30
2018-04-02T01:58:28.300Z,17.30
2018-04-02T01:59:00.035Z,17.30
2018-04-02T01:59:31.771Z,17.30
2018-04-02T02:00:04.285Z,17.30
2018-04-02T02:00:36.003Z,17.30
2018-04-02T02:01:07.744Z,17.30
2018-04-02T02:01:39.494Z,17.20
2018-04-02T02:02:11.227Z,17.20
2018-04-02T02:02:42.960Z,17.20
2018-04-02T02:03:15.460Z,17.20
2018-04-02T02:03:47.194Z,17.20
2018-04-02T02:04:18.920Z,17.20
2018-04-02T02:04:51.517Z,17.30
2018-04-02T02:05:23.217Z,17.30
2018-04-02T02:05:55.706Z,17.30
2018-04-02T02:06:27.431Z,17.30
2018-04-02T02:06:59.168Z,17.30
2018-04-02T02:07:31.655Z,17.20
2018-04-02T02:08:03.389Z,17.20
2018-04-02T02:08:35.112Z,17.20
2018-04-02T02:09:07.686Z,17.20
2018-04-02T02:09:40.168Z,17.20
2018-04-02T02:10:11.911Z,17.20
2018-04-02T02:10:43.624Z,17.30
2018-04-02T02:11:16.117Z,17.30
2018-04-02T02:11:47.831Z,17.30
2018-04-02T02:12:20.328Z,17.30
2018-04-02T02:12:52.055Z,17.30
2018-04-02T02:13:23.791Z,17.30
2018-04-02T02:13:56.267Z,17.30
2018-04-02T02:14:27.987Z,17.30
2018-04-02T02:15:00.486Z,17.30
2018-04-02T02:15:32.215Z,17.30
2018-04-02T02:16:03.939Z,17.30
2018-04-02T02:16:36.440Z,17.30
2018-04-02T02:17:08.168Z,17.30
2018-04-02T02:17:39.916Z,17.30
2018-04-02T02:18:11.635Z,17.20
2018-04-02T02:18:44.129Z,17.20
2018-04-02T02:19:15.836Z,17.20
2018-04-02T02:19:48.357Z,17.20
2018-04-02T02:20:20.071Z,17.20
2018-04-02T02:20:51.809Z,17.30
2018-04-02T02:21:23.559Z,17.30
2018-04-02T02:21:56.031Z,17.30
2018-04-02T02:22:27.750Z,17.20
2018-04-02T02:22:59.471Z,17.20
2018-04-02T02:23:31.188Z,17.20
2018-04-02T02:24:02.921Z,17.20
2018-04-02T02:24:34.673Z,17.20
2018-04-02T02:25:06.366Z,17.20
2018-04-02T02:25:38.099Z,17.20
2018-04-02T02:26:10.605Z,17.20
2018-04-02T02:26:42.324Z,17.20
2018-04-02T02:27:14.820Z,17.20
2018-04-02T02:27:46.540Z,17.20
2018-04-02T02:28:18.265Z,17.20
2018-04-02T02:28:50.752Z,17.20
2018-04-02T02:29:22.483Z,17.20
2018-04-02T02:29:54.236Z,17.30
2018-04-02T02:30:25.958Z,17.20
2018-04-02T02:30:58.455Z,17.20
2018-04-02T02:31:30.219Z,17.30
2018-04-02T02:32:01.983Z,17.20
2018-04-02T02:32:33.688Z,17.30
2018-04-02T02:33:05.432Z,17.30
2018-04-02T02:33:37.173Z,17.20
2018-04-02T02:34:08.882Z,17.20
2018-04-02T02:34:41.373Z,17.30
2018-04-02T02:35:13.157Z,17.30
2018-04-02T02:35:44.864Z,17.20
2018-04-02T02:36:16.585Z,17.20
2018-04-02T02:36:48.304Z,17.20
2018-04-02T02:37:20.848Z,17.20
2018-04-02T02:37:52.695Z,17.20
2018-04-02T02:38:24.397Z,17.20
2018-04-02T02:38:56.126Z,17.20
2018-04-02T02:39:28.624Z,17.20
2018-04-02T02:40:00.361Z,17.20
2018-04-02T02:40:32.091Z,17.20
2018-04-02T02:41:03.820Z,17.20
2018-04-02T02:41:36.344Z,17.20
2018-04-02T02:42:08.086Z,17.20
2018-04-02T02:42:39.808Z,17.20
2018-04-02T02:43:11.548Z,17.20
2018-04-02T02:43:43.275Z,17.10
2018-04-02T02:44:15.008Z,17.10
2018-04-02T02:44:47.499Z,17.10
2018-04-02T02:45:19.253Z,17.10
2018-04-02T02:45:50.982Z,17.10
2018-04-02T02:46:22.731Z,17.10
2018-04-02T02:46:54.468Z,17.10
2018-04-02T02:47:26.197Z,17.10
2018-04-02T02:47:58.674Z,17.10
2018-04-02T02:48:30.419Z,17.10
2018-04-02T02:49:02.139Z,17.10
2018-04-02T02:49:34.619Z,17.10
2018-04-02T02:50:06.376Z,17.10
2018-04-02T02:50:38.088Z,17.10
2018-04-02T02:51:10.707Z,17.10
2018-04-02T02:51:42.402Z,17.10
2018-04-02T02:52:14.149Z,17.10
2018-04-02T02:52:45.929Z,17.10
2018-04-02T02:53:17.695Z,17.10
2018-04-02T02:53:49.444Z,17.10
2018-04-02T02:54:21.146Z,17.10
2018-04-02T02:54:52.875Z,17.10
2018-04-02T02:55:24.614Z,17.20
2018-04-02T02:55:56.351Z,17.10
2018-04-02T02:56:28.868Z,17.10
2018-04-02T02:57:00.580Z,17.10
2018-04-02T02:57:32.303Z,17.10
2018-04-02T02:58:04.040Z,17.10
2018-04-02T02:58:36.563Z,17.10
2018-04-02T02:59:08.268Z,17.10
2018-04-02T02:59:40.010Z,17.10
2018-04-02T03:00:11.726Z,17.10
2018-04-02T03:00:44.218Z,17.10
2018-04-02T03:01:15.967Z,17.10
2018-04-02T03:01:47.711Z,17.20
2018-04-02T03:02:19.435Z,17.10
2018-04-02T03:02:51.170Z,17.20
2018-04-02T03:03:23.775Z,17.10
2018-04-02T03:03:55.489Z,17.10
2018-04-02T03:04:27.977Z,17.10
2018-04-02T03:04:59.700Z,17.10
2018-04-02T03:05:31.437Z,17.10
2018-04-02T03:06:03.192Z,17.10
2018-04-02T03:06:34.913Z,17.10
2018-04-02T03:07:07.414Z,17.10
2018-04-02T03:07:39.216Z,17.10
2018-04-02T03:08:11.726Z,17.10
2018-04-02T03:08:43.455Z,17.10
2018-04-02T03:09:15.183Z,17.10
2018-04-02T03:09:46.930Z,17.10
2018-04-02T03:10:18.671Z,17.10
2018-04-02T03:10:51.156Z,17.10
2018-04-02T03:11:22.895Z,17.10
2018-04-02T03:11:54.633Z,17.10
2018-04-02T03:12:26.364Z,17.10
2018-04-02T03:12:58.103Z,17.10
2018-04-02T03:13:30.618Z,17.10
2018-04-02T03:14:02.351Z,17.10
2018-04-02T03:14:34.080Z,17.10
2018-04-02T03:15:05.814Z,17.10
2018-04-02T03:15:37.543Z,17.10
2018-04-02T03:16:10.024Z,17.00
2018-04-02T03:16:41.754Z,17.00
2018-04-02T03:17:13.515Z,17.00
2018-04-02T03:17:45.244Z,17.00
2018-04-02T03:18:16.967Z,17.00
2018-04-02T03:18:49.475Z,17.00
2018-04-02T03:19:21.212Z,17.00
2018-04-02T03:19:52.949Z,17.00
2018-04-02T03:20:24.667Z,17.00
2018-04-02T03:20:57.150Z,17.00
2018-04-02T03:21:28.895Z,17.00
2018-04-02T03:22:01.369Z,17.00
2018-04-02T03:22:33.103Z,17.00
2018-04-02T03:23:04.827Z,17.00
2018-04-02T03:23:37.326Z,17.00
2018-04-02T03:24:09.039Z,17.00
2018-04-02T03:24:40.768Z,17.10
2018-04-02T03:25:13.256Z,17.10
2018-04-02T03:25:45.023Z,17.10
2018-04-02T03:26:16.773Z,17.10
2018-04-02T03:26:48.483Z,17.00
2018-04-02T03:27:20.213Z,17.00
2018-04-02T03:27:52.713Z,17.00
2018-04-02T03:28:24.463Z,17.00
2018-04-02T03:28:56.192Z,17.00
2018-04-02T03:29:27.928Z,17.00
2018-04-02T03:29:59.705Z,17.00
2018-04-02T03:30:31.433Z,17.00
2018-04-02T03:31:03.160Z,17.10
2018-04-02T03:31:34.906Z,17.10
2018-04-02T03:32:07.366Z,17.00
2018-04-02T03:32:39.099Z,17.00
2018-04-02T03:33:10.826Z,17.10
2018-04-02T03:33:42.544Z,17.10
2018-04-02T03:34:14.303Z,17.10
2018-04-02T03:34:46.024Z,17.10
2018-04-02T03:35:17.801Z,17.10
2018-04-02T03:35:49.526Z,17.10
2018-04-02T03:36:21.256Z,17.00
2018-04-02T03:36:52.997Z,17.10
2018-04-02T03:37:24.764Z,17.10
2018-04-02T03:37:56.511Z,17.00
2018-04-02T03:38:28.251Z,17.10
2018-04-02T03:38:59.976Z,17.10
2018-04-02T03:39:31.719Z,17.00
2018-04-02T03:40:03.452Z,17.10
2018-04-02T03:40:35.186Z,17.10
2018-04-02T03:41:06.911Z,17.10
2018-04-02T03:41:38.660Z,17.10
2018-04-02T03:42:10.387Z,17.10
2018-04-02T03:42:42.903Z,17.10
2018-04-02T03:43:14.608Z,17.10
2018-04-02T03:43:46.339Z,17.10
2018-04-02T03:44:18.831Z,17.10
2018-04-02T03:44:50.544Z,17.10
2018-04-02T03:45:23.039Z,17.00
2018-04-02T03:45:54.772Z,17.10
2018-04-02T03:46:26.519Z,17.10
2018-04-02T03:46:58.249Z,17.10
2018-04-02T03:47:29.988Z,17.00
2018-04-02T03:48:02.469Z,17.00
2018-04-02T03:48:34.196Z,17.00
2018-04-02T03:49:05.918Z,17.00
2018-04-02T03:49:38.433Z,17.00
2018-04-02T03:50:10.164Z,17.10
2018-04-02T03:50:41.907Z,17.10
2018-04-02T03:51:14.888Z,17.00
2018-04-02T03:51:46.609Z,17.00
2018-04-02T03:52:18.337Z,17.10
2018-04-02T03:52:50.824Z,17.10
2018-04-02T03:53:22.550Z,17.00
2018-04-02T03:53:55.126Z,17.00
2018-04-02T03:54:27.637Z,17.00
2018-04-02T03:54:59.351Z,17.00
2018-04-02T03:55:31.072Z,17.00
2018-04-02T03:56:02.811Z,17.00
2018-04-02T03:56:35.292Z,17.00
2018-04-02T03:57:07.026Z,17.00
2018-04-02T03:57:38.759Z,17.00
2018-04-02T03:58:11.254Z,17.00
2018-04-02T03:58:42.978Z,17.00
2018-04-02T03:59:15.461Z,17.00
2018-04-02T03:59:47.212Z,17.00
2018-04-02T04:00:18.919Z,17.00
2018-04-02T04:00:51.452Z,17.00
2018-04-02T04:01:23.163Z,17.00
2018-04-02T04:01:54.905Z,17.00
2018-04-02T04:02:26.623Z,17.00
2018-04-02T04:02:58.356Z,17.00
2018-04-02T04:03:30.871Z,17.00
2018-04-02T04:04:02.579Z,17.00
2018-04-02T04:04:34.299Z,17.00
2018-04-02T04:05:06.788Z,17.00
2018-04-02T04:05:38.519Z,16.90
2018-04-02T04:06:10.263Z,16.90
2018-04-02T04:06:41.980Z,17.00
2018-04-02T04:07:13.704Z,17.00
2018-04-02T04:07:45.417Z,17.00
2018-04-02T04:08:17.177Z,17.00
2018-04-02T04:08:49.735Z,17.00
2018-04-02T04:09:21.462Z,17.00
2018-04-02T04:09:53.184Z,17.00
2018-04-02T04:10:25.682Z,17.00
2018-04-02T04:10:57.426Z,17.00
2018-04-02T04:11:29.143Z,17.00
2018-04-02T04:12:00.872Z,17.00
2018-04-02T04:12:33.388Z,17.00
2018-04-02T04:13:05.098Z,17.00
2018-04-02T04:13:36.836Z,17.00
2018-04-02T04:14:08.587Z,17.00
2018-04-02T04:14:40.314Z,17.00
2018-04-02T04:15:12.804Z,17.00
2018-04-02T04:15:44.533Z,17.00
2018-04-02T04:16:16.256Z,17.00
2018-04-02T04:16:47.967Z,17.00
2018-04-02T04:17:19.698Z,16.90
2018-04-02T04:17:51.430Z,16.90
2018-04-02T04:18:23.157Z,17.00
2018-04-02T04:18:54.895Z,17.00
2018-04-02T04:19:27.356Z,17.00
2018-04-02T04:19:59.079Z,17.00
2018-04-02T04:20:31.587Z,17.00
2018-04-02T04:21:03.333Z,17.00
2018-04-02T04:21:35.055Z,17.00
2018-04-02T04:22:06.780Z,17.00
2018-04-02T04:22:39.270Z,17.00
2018-04-02T04:23:11.007Z,17.00
2018-04-02T04:23:43.485Z,17.00
2018-04-02T04:24:15.207Z,17.00
2018-04-02T04:24:47.062Z,17.00
2018-04-02T04:25:19.551Z,17.00
2018-04-02T04:25:51.304Z,17.00
2018-04-02T04:26:23.053Z,17.00
2018-04-02T04:26:54.798Z,17.00
2018-04-02T04:27:26.542Z,17.00
2018-04-02T04:27:58.262Z,17.00
2018-04-02T04:28:29.991Z,17.00
2018-04-02T04:29:01.707Z,17.00
2018-04-02T04:29:34.198Z,17.00
2018-04-02T04:30:05.976Z,17.00
2018-04-02T04:30:37.719Z,17.00
2018-04-02T04:31:09.427Z,17.00
2018-04-02T04:31:41.151Z,17.10
2018-04-02T04:32:13.652Z,17.10
2018-04-02T04:32:45.380Z,17.10
2018-04-02T04:33:17.158Z,17.10
2018-04-02T04:33:48.886Z,17.10
2018-04-02T04:34:20.604Z,17.10
2018-04-02T04:34:52.319Z,17.10
2018-04-02T04:35:24.039Z,17.10
2018-04-02T04:35:55.774Z,17.10
2018-04-02T04:36:27.488Z,17.00
2018-04-02T04:36:59.232Z,17.00
2018-04-02T04:37:30.934Z,17.00
2018-04-02T04:38:02.663Z,17.00
2018-04-02T04:38:34.404Z,17.00
2018-04-02T04:39:06.125Z,17.00
2018-04-02T04:39:37.861Z,17.00
2018-04-02T04:40:09.604Z,17.00
2018-04-02T04:40:41.321Z,17.00
2018-04-02T04:41:13.820Z,17.00
2018-04-02T04:41:45.551Z,17.00
2018-04-02T04:42:17.278Z,17.00
2018-04-02T04:42:49.000Z,17.00
2018-04-02T04:43:21.498Z,17.00
2018-04-02T04:43:53.228Z,17.00
2018-04-02T04:44:25.759Z,17.10
2018-04-02T04:44:57.451Z,17.10
2018-04-02T04:45:29.219Z,17.10
2018-04-02T04:46:00.938Z,17.00
2018-04-02T04:46:32.759Z,17.00
2018-04-02T04:47:05.252Z,16.90
2018-04-02T04:47:36.975Z,17.00
2018-04-02T04:48:08.689Z,16.90
2018-04-02T04:48:40.413Z,16.90
2018-04-02T04:49:12.165Z,16.90
2018-04-02T04:49:43.872Z,16.90
2018-04-02T04:50:15.590Z,16.90
2018-04-02T04:50:47.335Z,16.90
2018-04-02T04:51:19.074Z,16.90
2018-04-02T04:51:51.572Z,16.90
2018-04-02T04:52:23.348Z,16.80
2018-04-02T04:52:55.027Z,16.90
2018-04-02T04:53:27.523Z,16.90
2018-04-02T04:53:59.256Z,16.90
2018-04-02T04:54:30.978Z,16.90
2018-04-02T04:55:02.709Z,16.90
2018-04-02T04:55:35.207Z,16.90
2018-04-02T04:56:06.935Z,16.90
2018-04-02T04:56:38.664Z,16.90
2018-04-02T04:57:11.169Z,17.00
2018-04-02T04:57:42.883Z,17.00
2018-04-02T04:58:14.623Z,16.90
2018-04-02T04:58:47.101Z,16.90
2018-04-02T04:59:18.825Z,16.90
2018-04-02T04:59:51.314Z,16.90
2018-04-02T05:00:23.038Z,16.90
2018-04-02T05:00:54.768Z,16.90
2018-04-02T05:01:27.287Z,16.90
2018-04-02T05:01:59.037Z,16.90
2018-04-02T05:02:30.738Z,17.00
2018-04-02T05:03:03.243Z,17.00
2018-04-02T05:03:34.997Z,17.00
2018-04-02T05:04:06.735Z,17.00
2018-04-02T05:04:38.473Z,17.00
2018-04-02T05:05:10.204Z,17.00
2018-04-02T05:05:41.955Z,16.90
2018-04-02T05:06:13.668Z,16.90
2018-04-02T05:06:45.432Z,16.90
2018-04-02T05:07:17.196Z,16.90
2018-04-02T05:07:48.927Z,16.90
2018-04-02T05:08:20.656Z,16.90
2018-04-02T05:08:52.410Z,16.90
2018-04-02T05:09:24.126Z,16.90
2018-04-02T05:09:55.846Z,16.90
2018-04-02T05:10:28.365Z,16.90
2018-04-02T05:11:00.076Z,16.90
2018-04-02T05:11:31.815Z,16.90
2018-04-02T05:12:04.303Z,16.90
2018-04-02T05:12:36.049Z,16.90
2018-04-02T05:13:07.789Z,16.90
2018-04-02T05:13:39.520Z,16.90
2018-04-02T05:14:11.267Z,16.90
2018-04-02T05:14:43.008Z,16.90
2018-04-02T05:15:14.739Z,16.90
2018-04-02T05:15:47.226Z,16.90
2018-04-02T05:16:18.960Z,16.90
2018-04-02T05:16:50.678Z,16.90
2018-04-02T05:17:22.391Z,16.90
2018-04-02T05:17:54.132Z,16.80
2018-04-02T05:18:25.854Z,16.90
2018-04-02T05:18:57.591Z,16.90
2018-04-02T05:19:29.324Z,16.90
2018-04-02T05:20:01.055Z,16.90
2018-04-02T05:20:32.804Z,16.90
2018-04-02T05:21:05.331Z,16.90
2018-04-02T05:21:37.057Z,16.90
2018-04-02T05:22:08.783Z,16.90
2018-04-02T05:22:40.631Z,16.90
2018-04-02T05:23:13.118Z,16.90
2018-04-02T05:23:44.842Z,16.90
2018-04-02T05:24:16.571Z,16.90
2018-04-02T05:24:48.311Z,16.90
2018-04-02T05:25:20.052Z,16.90
2018-04-02T05:25:51.763Z,16.90
2018-04-02T05:26:24.262Z,16.90
2018-04-02T05:26:56.003Z,16.90
2018-04-02T05:27:27.716Z,16.90
2018-04-02T05:28:00.211Z,16.80
2018-04-02T05:28:31.943Z,16.80
2018-04-02T05:29:03.678Z,16.80
2018-04-02T05:29:36.169Z,16.90
2018-04-02T05:30:07.914Z,16.90
2018-04-02T05:30:39.642Z,16.90
2018-04-02T05:31:11.375Z,16.90
2018-04-02T05:31:43.103Z,16.90
2018-04-02T05:32:14.819Z,16.90
2018-04-02T05:32:46.558Z,16.90
2018-04-02T05:33:18.282Z,16.90
2018-04-02T05:33:50.011Z,16.90
2018-04-02T05:34:21.748Z,16.90
2018-04-02T05:34:53.480Z,16.90
2018-04-02T05:35:26.043Z,16.90
2018-04-02T05:35:58.531Z,16.90
2018-04-02T05:36:30.251Z,16.90
2018-04-02T05:37:02.746Z,16.90
2018-04-02T05:37:34.490Z,16.80
2018-04-02T05:38:06.215Z,16.90
2018-04-02T05:38:37.949Z,16.90
2018-04-02T05:39:09.681Z,16.80
2018-04-02T05:39:42.192Z,16.90
2018-04-02T05:40:13.920Z,16.90
2018-04-02T05:40:46.492Z,16.90
2018-04-02T05:41:18.947Z,16.90
2018-04-02T05:41:50.679Z,16.90
2018-04-02T05:42:22.425Z,16.90
2018-04-02T05:42:54.141Z,16.90
2018-04-02T05:43:26.634Z,16.80
2018-04-02T05:43:58.380Z,16.80
2018-04-02T05:44:30.120Z,16.80
2018-04-02T05:45:02.617Z,16.80
2018-04-02T05:45:34.352Z,16.80
2018-04-02T05:46:06.088Z,16.80
2018-04-02T05:46:37.812Z,16.80
2018-04-02T05:47:09.552Z,16.90
2018-04-02T05:47:41.291Z,16.90
2018-04-02T05:48:13.772Z,16.90
2018-04-02T05:48:45.508Z,16.90
2018-04-02T05:49:17.294Z,16.90
2018-04-02T05:49:48.993Z,16.90
2018-04-02T05:50:20.717Z,16.90
2018-04-02T05:50:53.211Z,16.90
2018-04-02T05:51:24.936Z,16.90
2018-04-02T05:51:56.668Z,16.90
2018-04-02T05:52:29.180Z,17.00
2018-04-02T05:53:00.886Z,17.00
2018-04-02T05:53:32.625Z,17.00
2018-04-02T05:54:05.128Z,17.00
2018-04-02T05:54:36.878Z,17.00
2018-04-02T05:55:08.596Z,17.00
2018-04-02T05:55:40.324Z,17.00
2018-04-02T05:56:12.075Z,17.00
2018-04-02T05:56:43.811Z,17.00
2018-04-02T05:57:16.297Z,17.10
2018-04-02T05:57:48.032Z,17.10
2018-04-02T05:58:19.776Z,17.00
2018-04-02T05:58:51.512Z,17.10
2018-04-02T05:59:23.237Z,17.10
2018-04-02T05:59:55.762Z,17.10
2018-04-02T06:00:27.477Z,17.10
2018-04-02T06:00:59.199Z,17.00
2018-04-02T06:01:30.968Z,17.00
2018-04-02T06:02:02.698Z,17.00
2018-04-02T06:02:34.430Z,17.00
2018-04-02T06:03:06.923Z,17.00
2018-04-02T06:03:38.663Z,17.00
2018-04-02T06:04:10.378Z,17.00
2018-04-02T06:04:42.860Z,17.00
2018-04-02T06:05:14.594Z,17.00
2018-04-02T06:05:46.315Z,17.00
2018-04-02T06:06:18.036Z,17.00
2018-04-02T06:06:49.772Z,17.00
2018-04-02T06:07:21.513Z,17.00
2018-04-02T06:07:53.262Z,17.00
2018-04-02T06:08:24.999Z,17.00
2018-04-02T06:08:56.711Z,17.00
2018-04-02T06:09:28.434Z,17.00
2018-04-02T06:10:00.928Z,17.10
2018-04-02T06:10:32.710Z,17.00
2018-04-02T06:11:04.392Z,17.10
2018-04-02T06:11:36.131Z,17.10
2018-04-02T06:12:08.641Z,17.10
2018-04-02T06:12:40.344Z,17.10
2018-04-02T06:13:12.064Z,17.10
2018-04-02T06:13:44.556Z,17.00
2018-04-02T06:14:16.301Z,17.00
2018-04-02T06:14:48.033Z,17.10
2018-04-02T06:15:20.514Z,17.00
2018-04-02T06:15:52.239Z,17.00
2018-04-02T06:16:24.009Z,17.00
2018-04-02T06:16:56.464Z,17.10
2018-04-02T06:17:28.199Z,17.10
2018-04-02T06:18:00.047Z,17.00
2018-04-02T06:18:32.503Z,17.10
2018-04-02T06:19:04.238Z,17.00
2018-04-02T06:19:35.981Z,17.10
2018-04-02T06:20:08.042Z,17.10
2018-04-02T06:20:39.726Z,17.10
2018-04-02T06:21:11.451Z,17.10
2018-04-02T06:21:43.187Z,17.10
2018-04-02T06:22:14.919Z,17.10
2018-04-02T06:22:46.674Z,17.10
2018-04-02T06:23:18.391Z,17.10
2018-04-02T06:23:50.882Z,17.10
2018-04-02T06:24:22.636Z,17.10
2018-04-02T06:24:54.360Z,17.10
2018-04-02T06:25:26.095Z,17.10
2018-04-02T06:25:57.826Z,17.20
2018-04-02T06:26:30.358Z,17.20
2018-04-02T06:27:02.058Z,17.10
2018-04-02T06:27:33.871Z,17.20
2018-04-02T06:28:06.405Z,17.20
2018-04-02T06:28:38.128Z,17.20
2018-04-02T06:29:09.852Z,17.20
2018-04-02T06:29:41.573Z,17.20
2018-04-02T06:30:13.320Z,17.20
2018-04-02T06:30:45.823Z,17.20
2018-04-02T06:31:17.546Z,17.20
2018-04-02T06:31:49.264Z,17.20
2018-04-02T06:32:21.771Z,17.20
2018-04-02T06:32:53.487Z,17.20
2018-04-02T06:33:25.219Z,17.30
2018-04-02T06:33:56.977Z,17.30
2018-04-02T06:34:28.690Z,17.30
2018-04-02T06:35:00.431Z,17.30
2018-04-02T06:35:32.178Z,17.30
2018-04-02T06:36:03.890Z,17.30
2018-04-02T06:36:36.373Z,17.30
2018-04-02T06:37:08.163Z,17.30
2018-04-02T06:37:39.825Z,17.30
2018-04-02T06:38:12.326Z,17.30
2018-04-02T06:38:44.052Z,17.30
2018-04-02T06:39:15.784Z,17.40
2018-04-02T06:39:48.268Z,17.40
2018-04-02T06:40:19.996Z,17.40
2018-04-02T06:40:51.739Z,17.40
2018-04-02T06:41:24.252Z,17.40
2018-04-02T06:41:55.991Z,17.40
2018-04-02T06:42:27.720Z,17.40
2018-04-02T06:42:59.512Z,17.40
2018-04-02T06:43:31.227Z,17.40
2018-04-02T06:44:02.962Z,17.50
2018-04-02T06:44:34.700Z,17.50
2018-04-02T06:45:06.449Z,17.50
2018-04-02T06:45:38.139Z,17.50
2018-04-02T06:46:10.626Z,17.50
2018-04-02T06:46:42.353Z,17.50
2018-04-02T06:47:14.850Z,17.50
2018-04-02T06:47:46.567Z,17.50
2018-04-02T06:48:18.284Z,17.50
2018-04-02T06:48:50.879Z,17.60
2018-04-02T06:49:23.363Z,17.60
2018-04-02T06:49:55.093Z,17.50
2018-04-02T06:50:26.823Z,17.50
2018-04-02T06:50:58.562Z,17.60